createdAt,value
2022-09-26T00:00:00.204Z,994.02
2022-09-26T00:01:00.230Z,994.01
2022-09-26T00:02:02.187Z,994.00
2022-09-26T00:03:01.150Z,993.99
2022-09-26T00:04:00.867Z,994.04
2022-09-26T00:05:03.948Z,994.02
2022-09-26T00:06:00.995Z,993.98
2022-09-26T00:07:00.962Z,993.98
2022-09-26T00:08:01.331Z,993.92
2022-09-26T00:09:02.426Z,993.93
2022-09-26T00:10:01.351Z,993.88
2022-09-26T00:11:01.277Z,993.90
2022-09-26T00:12:01.111Z,993.87
2022-09-26T00:13:01.329Z,993.82
2022-09-26T00:14:00.108Z,993.90
2022-09-26T00:15:00.849Z,993.81
2022-09-26T00:16:01.747Z,993.85
2022-09-26T00:17:00.097Z,993.79
2022-09-26T00:18:01.904Z,993.81
2022-09-26T00:19:00.874Z,993.76
2022-09-26T00:20:00.316Z,993.79
2022-09-26T00:21:02.430Z,993.77
2022-09-26T00:22:00.346Z,993.75
2022-09-26T00:23:00.021Z,993.79
2022-09-26T00:24:01.610Z,993.74
2022-09-26T00:25:01.314Z,993.75
2022-09-26T00:26:01.307Z,993.68
2022-09-26T00:26:59.941Z,993.70
2022-09-26T00:28:01.362Z,993.68
2022-09-26T00:29:01.805Z,993.70
2022-09-26T00:30:01.286Z,993.65
2022-09-26T00:30:59.948Z,993.65
2022-09-26T00:31:59.899Z,993.66
2022-09-26T00:33:00.943Z,993.70
2022-09-26T00:34:02.860Z,993.64
2022-09-26T00:34:59.922Z,993.64
2022-09-26T00:35:59.852Z,993.71
2022-09-26T00:36:59.907Z,993.69
2022-09-26T00:38:00.972Z,993.63
2022-09-26T00:39:02.103Z,993.60
2022-09-26T00:40:01.066Z,993.66
2022-09-26T00:41:03.104Z,993.70
2022-09-26T00:42:03.111Z,993.59
2022-09-26T00:43:01.873Z,993.73
2022-09-26T00:44:00.613Z,993.71
2022-09-26T00:44:59.831Z,993.64
2022-09-26T00:45:59.808Z,993.70
2022-09-26T00:46:59.774Z,993.58
2022-09-26T00:48:00.701Z,993.65
2022-09-26T00:48:59.754Z,993.54
2022-09-26T00:50:01.427Z,993.62
2022-09-26T00:51:00.764Z,993.65
2022-09-26T00:51:59.778Z,993.68
2022-09-26T00:52:59.666Z,993.66
2022-09-26T00:53:59.719Z,993.66
2022-09-26T00:54:59.756Z,993.61
2022-09-26T00:55:59.679Z,993.62
2022-09-26T00:57:00.362Z,993.66
2022-09-26T00:57:59.682Z,993.63
2022-09-26T00:58:59.670Z,993.60
2022-09-26T01:00:00.241Z,993.59
2022-09-26T01:01:00.594Z,993.55
2022-09-26T01:02:00.461Z,993.57
2022-09-26T01:03:00.206Z,993.50
2022-09-26T01:04:00.204Z,993.53
2022-09-26T01:04:59.594Z,993.40
2022-09-26T01:05:59.593Z,993.39
2022-09-26T01:06:59.601Z,993.36
2022-09-26T01:07:59.603Z,993.35
2022-09-26T01:08:59.622Z,993.42
2022-09-26T01:09:59.575Z,993.37
2022-09-26T01:10:59.618Z,993.40
2022-09-26T01:11:59.587Z,993.34
2022-09-26T01:12:59.550Z,993.37
2022-09-26T01:13:59.684Z,993.36
2022-09-26T01:14:59.596Z,993.32
2022-09-26T01:15:59.509Z,993.32
2022-09-26T01:17:00.335Z,993.33
2022-09-26T01:17:59.506Z,993.32
2022-09-26T01:18:59.532Z,993.30
2022-09-26T01:19:59.511Z,993.19
2022-09-26T01:20:59.497Z,993.19
2022-09-26T01:22:00.371Z,993.25
2022-09-26T01:22:59.510Z,993.19
2022-09-26T01:23:59.453Z,993.21
2022-09-26T01:24:59.454Z,993.24
2022-09-26T01:25:59.448Z,993.20
2022-09-26T01:26:59.455Z,993.23
2022-09-26T01:27:59.492Z,993.21
2022-09-26T01:28:59.448Z,993.13
2022-09-26T01:29:59.421Z,993.15
2022-09-26T01:31:00.214Z,993.12
2022-09-26T01:31:59.409Z,993.10
2022-09-26T01:32:59.418Z,993.15
2022-09-26T01:33:59.382Z,993.13
2022-09-26T01:34:59.392Z,993.10
2022-09-26T01:35:59.452Z,993.11
2022-09-26T01:36:59.426Z,993.09
2022-09-26T01:37:59.450Z,993.03
2022-09-26T01:38:59.368Z,993.08
2022-09-26T01:39:59.411Z,993.05
2022-09-26T01:40:59.398Z,993.10
2022-09-26T01:41:59.337Z,993.05
2022-09-26T01:42:59.458Z,993.06
2022-09-26T01:43:59.355Z,993.06
2022-09-26T01:44:59.312Z,993.13
2022-09-26T02:01:18.130Z,993.15
2022-09-26T02:02:06.291Z,993.12
2022-09-26T02:03:06.243Z,993.05
2022-09-26T02:04:06.211Z,993.07
2022-09-26T02:05:06.217Z,992.98
2022-09-26T02:06:06.219Z,993.01
2022-09-26T02:07:06.203Z,992.97
2022-09-26T02:08:06.196Z,992.98
2022-09-26T02:09:08.052Z,992.90
2022-09-26T02:10:06.210Z,992.94
2022-09-26T02:11:06.183Z,992.88
2022-09-26T02:12:06.180Z,992.91
2022-09-26T02:13:06.147Z,992.94
2022-09-26T02:14:06.174Z,992.92
2022-09-26T02:15:06.151Z,992.82
2022-09-26T02:16:06.204Z,992.83
2022-09-26T02:17:06.128Z,992.84
2022-09-26T02:18:06.105Z,992.84
2022-09-26T02:19:06.189Z,992.87
2022-09-26T02:20:06.122Z,992.76
2022-09-26T02:21:06.125Z,992.80
2022-09-26T02:22:06.114Z,992.75
2022-09-26T02:23:06.103Z,992.72
2022-09-26T02:24:06.078Z,992.74
2022-09-26T02:25:38.545Z,992.65
2022-09-26T02:26:06.116Z,992.65
2022-09-26T02:27:06.095Z,992.65
2022-09-26T02:28:06.083Z,992.64
2022-09-26T02:29:06.106Z,992.71
2022-09-26T02:30:06.100Z,992.66
2022-09-26T02:31:06.140Z,992.63
2022-09-26T02:32:06.154Z,992.65
2022-09-26T02:33:06.105Z,992.64
2022-09-26T02:34:06.068Z,992.63
2022-09-26T02:35:08.719Z,992.60
2022-09-26T02:36:06.049Z,992.61
2022-09-26T02:37:05.991Z,992.58
2022-09-26T02:38:06.077Z,992.59
2022-09-26T02:39:07.686Z,992.57
2022-09-26T02:40:06.005Z,992.58
2022-09-26T02:41:06.033Z,992.54
2022-09-26T02:42:06.016Z,992.51
2022-09-26T02:43:06.035Z,992.50
2022-09-26T02:44:05.999Z,992.49
2022-09-26T02:45:06.068Z,992.54
2022-09-26T02:46:06.101Z,992.56
2022-09-26T02:47:05.925Z,992.47
2022-09-26T02:48:08.671Z,992.51
2022-09-26T02:49:06.003Z,992.53
2022-09-26T02:50:05.924Z,992.51
2022-09-26T02:51:06.047Z,992.52
2022-09-26T02:52:06.592Z,992.51
2022-09-26T02:53:05.965Z,992.50
2022-09-26T02:54:06.706Z,992.50
2022-09-26T02:55:05.891Z,992.52
2022-09-26T02:56:05.908Z,992.46
2022-09-26T02:57:05.890Z,992.46
2022-09-26T02:58:05.886Z,992.43
2022-09-26T02:59:05.975Z,992.49
2022-09-26T03:00:05.906Z,992.42
2022-09-26T03:01:07.107Z,992.38
2022-09-26T03:02:05.889Z,992.33
2022-09-26T03:03:05.868Z,992.35
2022-09-26T03:04:05.818Z,992.35
2022-09-26T03:05:08.599Z,992.36
2022-09-26T03:06:06.754Z,992.32
2022-09-26T03:07:06.955Z,992.25
2022-09-26T03:08:08.531Z,992.28
2022-09-26T03:09:05.921Z,992.24
2022-09-26T03:10:05.798Z,992.28
2022-09-26T03:11:05.862Z,992.20
2022-09-26T03:12:05.771Z,992.19
2022-09-26T03:13:05.815Z,992.15
2022-09-26T03:14:05.815Z,992.21
2022-09-26T03:15:05.754Z,992.14
2022-09-26T03:16:06.784Z,992.17
2022-09-26T03:17:05.771Z,992.17
2022-09-26T03:18:07.499Z,992.12
2022-09-26T03:19:05.797Z,992.10
2022-09-26T03:20:08.460Z,992.13
2022-09-26T03:21:05.766Z,992.07
2022-09-26T03:22:07.445Z,992.03
2022-09-26T03:23:05.667Z,992.03
2022-09-26T03:24:05.694Z,992.04
2022-09-26T03:25:05.677Z,991.99
2022-09-26T03:26:05.662Z,991.99
2022-09-26T03:27:05.699Z,991.97
2022-09-26T03:28:05.697Z,991.91
2022-09-26T03:29:05.742Z,991.99
2022-09-26T03:30:05.617Z,991.95
2022-09-26T03:31:05.635Z,991.96
2022-09-26T03:32:05.659Z,991.94
2022-09-26T03:33:05.622Z,991.92
2022-09-26T03:34:05.658Z,991.92
2022-09-26T03:35:05.715Z,991.95
2022-09-26T03:36:05.652Z,991.91
2022-09-26T03:37:05.662Z,991.97
2022-09-26T03:38:05.581Z,991.97
2022-09-26T03:39:05.636Z,991.88
2022-09-26T03:40:05.596Z,991.94
2022-09-26T03:41:05.593Z,991.92
2022-09-26T03:42:05.572Z,991.97
2022-09-26T03:43:05.530Z,991.96
2022-09-26T03:44:13.155Z,991.97
2022-09-26T03:45:05.511Z,991.93
2022-09-26T03:46:05.603Z,991.91
2022-09-26T03:47:06.235Z,991.84
2022-09-26T04:02:42.620Z,991.82
2022-09-26T04:03:46.469Z,991.85
2022-09-26T04:04:43.364Z,991.82
2022-09-26T04:05:48.022Z,991.75
2022-09-26T04:06:45.061Z,991.72
2022-09-26T04:07:47.019Z,991.65
2022-09-26T04:08:43.541Z,991.61
2022-09-26T04:09:43.795Z,991.57
2022-09-26T04:10:43.622Z,991.57
2022-09-26T04:11:43.506Z,991.59
2022-09-26T04:12:43.628Z,991.57
2022-09-26T04:13:53.005Z,991.55
2022-09-26T04:14:45.553Z,991.65
2022-09-26T04:15:43.477Z,991.52
2022-09-26T04:16:43.563Z,991.49
2022-09-26T04:17:46.186Z,991.48
2022-09-26T04:18:43.970Z,991.43
2022-09-26T04:19:44.328Z,991.47
2022-09-26T04:20:43.513Z,991.49
2022-09-26T04:21:43.435Z,991.41
2022-09-26T04:22:43.467Z,991.47
2022-09-26T04:23:43.537Z,991.43
2022-09-26T04:24:43.455Z,991.41
2022-09-26T04:25:43.496Z,991.40
2022-09-26T04:26:43.406Z,991.40
2022-09-26T04:28:17.542Z,991.36
2022-09-26T04:28:43.358Z,991.35
2022-09-26T04:29:43.517Z,991.28
2022-09-26T04:30:43.475Z,991.22
2022-09-26T04:31:43.466Z,991.25
2022-09-26T04:32:44.201Z,991.23
2022-09-26T04:33:43.419Z,991.24
2022-09-26T04:34:43.390Z,991.17
2022-09-26T04:35:43.351Z,991.25
2022-09-26T04:36:43.335Z,991.16
2022-09-26T04:37:43.425Z,991.19
2022-09-26T04:38:44.163Z,991.19
2022-09-26T04:39:43.947Z,991.19
2022-09-26T04:40:43.595Z,991.13
2022-09-26T04:41:43.440Z,991.12
2022-09-26T04:42:43.277Z,991.13
2022-09-26T04:43:43.354Z,991.13
2022-09-26T04:44:43.271Z,991.22
2022-09-26T04:45:43.416Z,991.16
2022-09-26T04:46:46.034Z,991.18
2022-09-26T04:47:43.226Z,991.15
2022-09-26T04:48:44.027Z,991.15
2022-09-26T04:49:43.243Z,991.13
2022-09-26T04:50:43.268Z,991.14
2022-09-26T04:51:43.213Z,991.11
2022-09-26T04:52:43.234Z,991.14
2022-09-26T04:53:44.202Z,991.12
2022-09-26T04:54:43.303Z,991.10
2022-09-26T04:55:43.158Z,991.06
2022-09-26T04:56:46.077Z,991.11
2022-09-26T04:57:43.154Z,991.02
2022-09-26T04:58:43.100Z,991.05
2022-09-26T04:59:43.139Z,991.04
2022-09-26T05:00:45.919Z,991.01
2022-09-26T05:01:44.457Z,991.00
2022-09-26T05:02:43.194Z,990.98
2022-09-26T05:03:43.145Z,990.98
2022-09-26T05:04:43.169Z,990.97
2022-09-26T05:05:43.111Z,990.90
2022-09-26T05:06:43.087Z,990.92
2022-09-26T05:07:43.087Z,990.96
2022-09-26T05:08:44.119Z,990.89
2022-09-26T05:09:43.041Z,990.90
2022-09-26T05:10:43.051Z,990.91
2022-09-26T05:11:43.038Z,990.89
2022-09-26T05:12:43.130Z,990.94
2022-09-26T05:13:43.042Z,990.92
2022-09-26T05:14:43.130Z,990.87
2022-09-26T05:15:43.017Z,990.90
2022-09-26T05:16:43.072Z,990.89
2022-09-26T05:17:42.981Z,990.96
2022-09-26T05:18:45.718Z,990.92
2022-09-26T05:19:43.617Z,990.92
2022-09-26T05:20:43.014Z,990.88
2022-09-26T05:21:43.114Z,990.87
2022-09-26T05:22:45.541Z,990.85
2022-09-26T05:23:44.969Z,990.83
2022-09-26T05:24:43.973Z,990.84
2022-09-26T05:25:42.935Z,990.77
2022-09-26T05:26:42.924Z,990.74
2022-09-26T05:27:45.540Z,990.76
2022-09-26T05:28:43.507Z,990.78
2022-09-26T05:29:43.001Z,990.81
2022-09-26T05:30:42.937Z,990.77
2022-09-26T05:31:43.011Z,990.81
2022-09-26T05:32:45.574Z,990.78
2022-09-26T05:33:43.700Z,990.80
2022-09-26T05:34:42.942Z,990.69
2022-09-26T05:35:44.023Z,990.71
2022-09-26T05:36:42.957Z,990.66
2022-09-26T05:37:42.964Z,990.67
2022-09-26T05:38:42.811Z,990.69
2022-09-26T05:39:42.970Z,990.67
2022-09-26T05:40:43.045Z,990.65
2022-09-26T05:41:42.916Z,990.62
2022-09-26T05:42:45.687Z,990.60
2022-09-26T05:43:42.833Z,990.61
2022-09-26T05:44:42.844Z,990.48
2022-09-26T05:45:43.181Z,990.61
2022-09-26T05:46:42.846Z,990.57
2022-09-26T05:47:42.808Z,990.56
2022-09-26T05:48:42.794Z,990.57
2022-09-26T05:49:42.796Z,990.52
2022-09-26T05:50:43.720Z,990.54
2022-09-26T05:51:43.894Z,990.50
2022-09-26T05:52:42.773Z,990.49
2022-09-26T05:53:42.770Z,990.50
2022-09-26T05:54:42.803Z,990.41
2022-09-26T05:55:42.728Z,990.47
2022-09-26T05:56:42.687Z,990.42
2022-09-26T05:57:42.768Z,990.49
2022-09-26T05:58:44.200Z,990.38
2022-09-26T05:59:42.799Z,990.45
2022-09-26T06:00:44.363Z,990.45
2022-09-26T06:01:42.715Z,990.38
2022-09-26T06:02:42.763Z,990.38
2022-09-26T06:03:42.644Z,990.42
2022-09-26T06:04:43.499Z,990.42
2022-09-26T06:05:42.672Z,990.43
2022-09-26T06:06:42.808Z,990.40
2022-09-26T06:07:42.614Z,990.37
2022-09-26T06:08:42.733Z,990.32
2022-09-26T06:09:42.712Z,990.35
2022-09-26T06:10:42.598Z,990.36
2022-09-26T06:11:42.627Z,990.34
2022-09-26T06:12:47.561Z,990.32
2022-09-26T06:13:47.194Z,990.30
2022-09-26T06:14:42.638Z,990.30
2022-09-26T06:15:42.833Z,990.26
2022-09-26T06:16:42.620Z,990.21
2022-09-26T06:17:42.593Z,990.24
2022-09-26T06:18:45.060Z,990.21
2022-09-26T06:19:42.575Z,990.22
2022-09-26T06:20:44.313Z,990.25
2022-09-26T06:21:43.138Z,990.23
2022-09-26T06:22:42.639Z,990.20
2022-09-26T06:23:42.546Z,990.21
2022-09-26T06:24:42.601Z,990.13
2022-09-26T06:25:42.463Z,990.11
2022-09-26T06:26:45.185Z,990.06
2022-09-26T06:27:42.649Z,990.10
2022-09-26T06:28:42.897Z,990.06
2022-09-26T06:29:42.489Z,990.11
2022-09-26T06:30:42.532Z,990.04
2022-09-26T06:31:42.497Z,990.01
2022-09-26T06:32:42.425Z,990.00
2022-09-26T06:33:42.792Z,990.00
2022-09-26T06:34:42.544Z,989.99
2022-09-26T06:35:42.416Z,989.99
2022-09-26T06:36:42.380Z,989.97
2022-09-26T06:37:42.425Z,989.94
2022-09-26T06:38:42.358Z,989.95
2022-09-26T06:39:42.406Z,989.89
2022-09-26T06:40:42.564Z,989.88
2022-09-26T06:41:42.427Z,989.82
2022-09-26T06:42:42.418Z,989.91
2022-09-26T06:43:42.379Z,989.79
2022-09-26T06:44:43.154Z,989.82
2022-09-26T06:45:42.472Z,989.79
2022-09-26T06:46:42.462Z,989.79
2022-09-26T06:47:43.210Z,989.82
2022-09-26T06:48:42.370Z,989.77
2022-09-26T06:49:42.620Z,989.78
2022-09-26T06:50:42.322Z,989.77
2022-09-26T06:51:42.288Z,989.80
2022-09-26T06:52:42.299Z,989.78
2022-09-26T06:53:42.240Z,989.78
2022-09-26T06:54:42.325Z,989.74
2022-09-26T06:55:42.268Z,989.67
2022-09-26T06:56:42.302Z,989.68
2022-09-26T06:57:42.358Z,989.69
2022-09-26T06:58:42.351Z,989.66
2022-09-26T06:59:42.266Z,989.66
2022-09-26T07:00:42.314Z,989.69
2022-09-26T07:01:42.306Z,989.64
2022-09-26T07:02:42.253Z,989.72
2022-09-26T07:03:45.738Z,989.73
2022-09-26T07:04:43.213Z,989.71
2022-09-26T07:05:42.209Z,989.69
2022-09-26T07:06:42.175Z,989.65
2022-09-26T07:07:42.214Z,989.61
2022-09-26T07:09:44.189Z,989.62
2022-09-26T07:10:42.141Z,989.55
2022-09-26T07:12:12.494Z,989.53
2022-09-26T07:12:44.127Z,989.60
2022-09-26T07:13:42.821Z,989.59
2022-09-26T07:14:42.152Z,989.52
2022-09-26T07:15:42.185Z,989.54
2022-09-26T07:16:42.255Z,989.55
2022-09-26T07:17:42.093Z,989.56
2022-09-26T07:18:42.098Z,989.55
2022-09-26T07:19:42.046Z,989.57
2022-09-26T07:20:42.051Z,989.56
2022-09-26T07:21:42.119Z,989.56
2022-09-26T07:22:42.033Z,989.53
2022-09-26T07:23:42.068Z,989.59
2022-09-26T07:24:42.076Z,989.45
2022-09-26T07:25:42.058Z,989.47
2022-09-26T07:26:42.063Z,989.36
2022-09-26T07:27:41.991Z,989.38
2022-09-26T07:28:42.072Z,989.33
2022-09-26T07:29:41.960Z,989.31
2022-09-26T07:30:41.989Z,989.29
2022-09-26T07:31:42.057Z,989.30
2022-09-26T07:32:41.984Z,989.27
2022-09-26T07:33:44.680Z,989.24
2022-09-26T07:34:41.955Z,989.27
2022-09-26T07:35:42.132Z,989.26
2022-09-26T07:36:41.950Z,989.23
2022-09-26T07:37:41.984Z,989.21
2022-09-26T07:38:41.923Z,989.18
2022-09-26T07:39:42.094Z,989.09
2022-09-26T07:40:41.931Z,989.14
2022-09-26T07:41:41.932Z,989.05
2022-09-26T07:42:41.939Z,988.99
2022-09-26T07:44:34.607Z,988.99
2022-09-26T07:45:43.882Z,988.72
2022-09-26T07:46:42.021Z,988.70
2022-09-26T07:47:41.835Z,988.67
2022-09-26T07:48:41.902Z,988.64
2022-09-26T07:49:41.846Z,988.52
2022-09-26T07:50:42.017Z,988.51
2022-09-26T07:51:41.798Z,988.56
2022-09-26T07:52:41.778Z,988.39
2022-09-26T07:53:41.795Z,988.27
2022-09-26T07:54:41.743Z,988.23
2022-09-26T07:55:41.795Z,988.18
2022-09-26T07:56:41.790Z,988.14
2022-09-26T07:57:41.810Z,988.16
2022-09-26T07:58:41.751Z,988.14
2022-09-26T07:59:41.767Z,988.04
2022-09-26T08:00:41.778Z,988.01
2022-09-26T08:01:41.818Z,988.07
2022-09-26T08:02:41.812Z,988.05
2022-09-26T08:03:41.727Z,987.99
2022-09-26T08:04:41.690Z,987.92
2022-09-26T08:05:41.677Z,987.97
2022-09-26T08:06:41.653Z,987.98
2022-09-26T08:07:42.298Z,987.91
2022-09-26T08:08:42.705Z,987.93
2022-09-26T08:09:41.741Z,987.94
2022-09-26T08:10:41.678Z,987.94
2022-09-26T08:11:41.731Z,987.90
2022-09-26T08:12:41.657Z,987.78
2022-09-26T08:13:41.624Z,987.83
2022-09-26T08:14:41.630Z,987.81
2022-09-26T08:15:41.666Z,987.80
2022-09-26T08:16:41.671Z,987.81
2022-09-26T08:17:41.658Z,987.83
2022-09-26T08:18:41.598Z,987.76
2022-09-26T08:19:41.619Z,987.78
2022-09-26T08:20:41.619Z,987.80
2022-09-26T08:21:41.606Z,987.76
2022-09-26T08:22:41.602Z,987.78
2022-09-26T08:23:41.577Z,987.83
2022-09-26T08:24:41.572Z,987.72
2022-09-26T08:26:15.580Z,987.73
2022-09-26T08:26:44.425Z,987.80
2022-09-26T08:27:42.455Z,987.58
2022-09-26T08:28:41.477Z,987.60
2022-09-26T08:29:41.462Z,987.54
2022-09-26T08:30:41.496Z,987.44
2022-09-26T08:31:41.621Z,987.48
2022-09-26T08:32:41.492Z,987.43
2022-09-26T08:33:41.468Z,987.37
2022-09-26T08:34:42.119Z,987.34
2022-09-26T08:35:42.451Z,987.36
2022-09-26T08:36:41.474Z,987.26
2022-09-26T08:37:41.492Z,987.27
2022-09-26T08:38:42.235Z,987.24
2022-09-26T08:39:41.433Z,987.34
2022-09-26T08:40:42.537Z,987.24
2022-09-26T08:41:41.440Z,987.36
2022-09-26T08:42:41.409Z,987.28
2022-09-26T08:43:41.389Z,987.34
2022-09-26T08:44:41.377Z,987.44
2022-09-26T08:45:46.715Z,987.49
2022-09-26T08:46:43.465Z,987.41
2022-09-26T08:47:41.357Z,987.34
2022-09-26T08:48:41.383Z,987.34
2022-09-26T08:49:41.353Z,987.45
2022-09-26T08:50:41.403Z,987.42
2022-09-26T08:51:42.004Z,987.47
2022-09-26T08:52:41.283Z,987.45
2022-09-26T08:53:41.325Z,987.47
2022-09-26T08:54:41.348Z,987.67
2022-09-26T08:55:41.349Z,987.53
2022-09-26T08:56:41.271Z,987.72
2022-09-26T08:57:42.060Z,987.69
2022-09-26T08:58:41.357Z,987.74
2022-09-26T08:59:41.327Z,987.81
2022-09-26T09:00:41.333Z,987.79
2022-09-26T09:01:41.403Z,987.70
2022-09-26T09:02:41.379Z,987.72
2022-09-26T09:03:41.267Z,987.64
2022-09-26T09:04:41.292Z,987.79
2022-09-26T09:05:41.279Z,987.70
2022-09-26T09:06:41.265Z,987.78
2022-09-26T09:07:41.252Z,987.84
2022-09-26T09:08:41.229Z,987.78
2022-09-26T09:09:42.089Z,987.79
2022-09-26T09:10:41.440Z,987.73
2022-09-26T09:11:41.205Z,987.85
2022-09-26T09:12:41.174Z,987.80
2022-09-26T09:13:41.178Z,987.78
2022-09-26T09:14:41.190Z,987.78
2022-09-26T09:15:41.262Z,987.64
2022-09-26T09:16:41.178Z,987.62
2022-09-26T09:17:42.017Z,987.58
2022-09-26T09:18:41.164Z,987.54
2022-09-26T09:19:41.165Z,987.52
2022-09-26T09:20:41.135Z,987.51
2022-09-26T09:21:42.125Z,987.47
2022-09-26T09:22:42.091Z,987.33
2022-09-26T09:23:41.211Z,987.46
2022-09-26T09:24:41.128Z,987.38
2022-09-26T09:25:41.102Z,987.38
2022-09-26T09:28:02.686Z,987.34
2022-09-26T09:28:43.020Z,987.24
2022-09-26T09:29:41.022Z,987.25
2022-09-26T09:30:41.025Z,987.17
2022-09-26T09:31:41.052Z,987.22
2022-09-26T09:32:41.000Z,987.10
2022-09-26T09:33:41.004Z,987.01
2022-09-26T09:34:40.981Z,987.05
2022-09-26T09:35:40.991Z,987.11
2022-09-26T09:36:40.969Z,987.02
2022-09-26T09:37:40.951Z,986.93
2022-09-26T09:38:40.979Z,986.86
2022-09-26T09:39:40.943Z,986.85
2022-09-26T09:41:13.317Z,986.89
2022-09-26T09:41:40.906Z,986.84
2022-09-26T09:42:40.894Z,986.86
2022-09-26T09:43:40.916Z,986.83
2022-09-26T09:44:45.652Z,986.80
2022-09-26T09:45:42.925Z,986.81
2022-09-26T09:46:40.944Z,986.75
2022-09-26T09:47:40.881Z,986.69
2022-09-26T09:48:40.888Z,986.63
2022-09-26T09:49:40.866Z,986.78
2022-09-26T09:50:41.911Z,986.79
2022-09-26T09:51:40.857Z,986.79
2022-09-26T09:52:40.870Z,986.79
2022-09-26T09:53:40.831Z,986.71
2022-09-26T09:54:40.840Z,986.79
2022-09-26T09:55:40.779Z,986.68
2022-09-26T09:56:40.800Z,986.77
2022-09-26T09:57:40.832Z,986.72
2022-09-26T09:58:40.771Z,986.62
2022-09-26T09:59:40.816Z,986.75
2022-09-26T10:00:41.787Z,986.77
2022-09-26T10:01:40.795Z,986.77
2022-09-26T10:02:40.822Z,986.74
2022-09-26T10:03:40.739Z,986.76
2022-09-26T10:04:40.771Z,986.80
2022-09-26T10:05:40.753Z,986.74
2022-09-26T10:06:46.120Z,986.80
2022-09-26T10:07:41.702Z,986.58
2022-09-26T10:08:40.694Z,986.69
2022-09-26T10:09:41.082Z,986.74
2022-09-26T10:10:40.691Z,986.74
2022-09-26T10:11:40.689Z,986.75
2022-09-26T10:12:40.708Z,986.78
2022-09-26T10:13:40.686Z,986.70
2022-09-26T10:14:40.672Z,986.78
2022-09-26T10:15:40.713Z,986.77
2022-09-26T10:16:40.684Z,986.78
2022-09-26T10:17:40.751Z,986.84
2022-09-26T10:18:40.652Z,986.86
2022-09-26T10:19:40.678Z,986.76
2022-09-26T10:20:40.664Z,986.77
2022-09-26T10:21:41.247Z,986.78
2022-09-26T10:22:41.558Z,986.77
2022-09-26T10:23:40.603Z,986.61
2022-09-26T10:24:40.662Z,986.69
2022-09-26T10:25:40.621Z,986.76
2022-09-26T10:26:40.583Z,986.74
2022-09-26T10:27:40.625Z,986.65
2022-09-26T10:28:40.605Z,986.75
2022-09-26T10:29:40.616Z,986.75
2022-09-26T10:30:40.554Z,986.80
2022-09-26T10:31:42.872Z,986.80
2022-09-26T10:32:41.604Z,986.60
2022-09-26T10:33:40.649Z,986.76
2022-09-26T10:34:40.538Z,986.86
2022-09-26T10:35:40.554Z,986.72
2022-09-26T10:36:40.490Z,986.77
2022-09-26T10:37:40.586Z,986.78
2022-09-26T10:38:40.510Z,986.79
2022-09-26T10:39:40.514Z,986.78
2022-09-26T10:40:40.579Z,986.80
2022-09-26T10:41:40.467Z,986.89
2022-09-26T10:42:40.445Z,986.80
2022-09-26T10:43:40.452Z,986.85
2022-09-26T10:44:40.469Z,986.77
2022-09-26T10:45:40.444Z,986.84
2022-09-26T10:46:40.526Z,986.77
2022-09-26T10:47:40.454Z,986.86
2022-09-26T10:48:40.458Z,986.89
2022-09-26T10:49:40.443Z,986.79
2022-09-26T10:50:40.443Z,986.83
2022-09-26T10:51:40.384Z,986.92
2022-09-26T10:52:40.397Z,986.87
2022-09-26T10:53:40.418Z,986.85
2022-09-26T10:54:40.366Z,986.82
2022-09-26T10:55:40.419Z,986.83
2022-09-26T10:56:40.350Z,986.88
2022-09-26T10:57:40.353Z,986.94
2022-09-26T10:58:40.347Z,986.90
2022-09-26T10:59:40.356Z,986.86
2022-09-26T11:00:40.339Z,986.82
2022-09-26T11:01:40.366Z,986.82
2022-09-26T11:02:40.329Z,986.82
2022-09-26T11:03:40.403Z,986.76
2022-09-26T11:04:40.287Z,986.76
2022-09-26T11:05:40.301Z,986.78
2022-09-26T11:06:40.300Z,986.74
2022-09-26T11:07:40.268Z,986.69
2022-09-26T11:08:40.277Z,986.69
2022-09-26T11:09:40.253Z,986.70
2022-09-26T11:10:40.230Z,986.66
2022-09-26T11:11:40.277Z,986.56
2022-09-26T11:12:40.221Z,986.56
2022-09-26T11:13:40.223Z,986.50
2022-09-26T11:14:40.253Z,986.54
2022-09-26T11:15:40.296Z,986.56
2022-09-26T11:16:40.241Z,986.52
2022-09-26T11:17:40.262Z,986.38
2022-09-26T11:18:40.180Z,986.45
2022-09-26T11:19:40.187Z,986.46
2022-09-26T11:20:40.189Z,986.37
2022-09-26T11:21:40.219Z,986.41
2022-09-26T11:22:40.239Z,986.27
2022-09-26T11:23:40.285Z,986.22
2022-09-26T11:24:40.156Z,986.30
2022-09-26T11:25:40.181Z,986.29
2022-09-26T11:26:40.189Z,986.27
2022-09-26T11:27:40.138Z,986.27
2022-09-26T11:28:40.800Z,986.20
2022-09-26T11:29:40.111Z,986.14
2022-09-26T11:30:40.096Z,986.16
2022-09-26T11:31:40.210Z,986.10
2022-09-26T11:32:40.133Z,986.23
2022-09-26T11:33:40.084Z,986.12
2022-09-26T11:34:41.075Z,986.23
2022-09-26T11:35:40.120Z,986.10
2022-09-26T11:36:40.041Z,986.06
2022-09-26T11:37:40.046Z,986.17
2022-09-26T11:38:40.121Z,986.13
2022-09-26T11:39:40.056Z,986.14
2022-09-26T11:40:40.123Z,986.07
2022-09-26T11:41:40.018Z,986.18
2022-09-26T11:42:39.993Z,986.20
2022-09-26T11:43:40.031Z,986.04
2022-09-26T11:44:42.729Z,985.91
2022-09-26T11:45:42.893Z,986.05
2022-09-26T11:46:43.390Z,986.04
2022-09-26T11:47:39.968Z,985.95
2022-09-26T11:48:39.968Z,986.06
2022-09-26T11:49:40.092Z,986.05
2022-09-26T11:50:39.933Z,985.93
2022-09-26T11:51:40.030Z,986.04
2022-09-26T11:52:40.039Z,986.04
2022-09-26T11:53:39.953Z,985.99
2022-09-26T11:54:39.958Z,986.03
2022-09-26T11:55:39.899Z,986.04
2022-09-26T11:56:39.916Z,985.91
2022-09-26T11:57:39.935Z,985.99
2022-09-26T11:58:39.882Z,985.92
2022-09-26T11:59:39.863Z,985.85
2022-09-26T12:00:39.877Z,985.92
2022-09-26T12:01:39.879Z,985.95
2022-09-26T12:02:39.985Z,985.87
2022-09-26T12:03:40.041Z,985.80
2022-09-26T12:04:39.854Z,985.90
2022-09-26T12:05:39.861Z,986.00
2022-09-26T12:06:39.894Z,985.91
2022-09-26T12:07:39.843Z,985.89
2022-09-26T12:08:39.787Z,985.91
2022-09-26T12:09:39.898Z,985.80
2022-09-26T12:10:39.871Z,985.90
2022-09-26T12:11:39.811Z,985.84
2022-09-26T12:12:40.646Z,985.78
2022-09-26T12:13:40.904Z,985.91
2022-09-26T12:15:13.771Z,985.83
2022-09-26T12:15:39.874Z,985.81
2022-09-26T12:16:40.829Z,985.90
2022-09-26T12:17:40.773Z,985.90
2022-09-26T12:18:39.858Z,985.86
2022-09-26T12:19:39.782Z,985.85
2022-09-26T12:20:39.807Z,985.93
2022-09-26T12:21:39.733Z,985.96
2022-09-26T12:22:39.776Z,985.88
2022-09-26T12:23:39.700Z,986.03
2022-09-26T12:24:40.359Z,985.99
2022-09-26T12:25:39.697Z,985.94
2022-09-26T12:26:39.708Z,985.94
2022-09-26T12:27:39.670Z,985.95
2022-09-26T12:28:39.692Z,986.04
2022-09-26T12:29:39.639Z,985.88
2022-09-26T12:31:16.114Z,985.94
2022-09-26T12:31:40.946Z,985.91
2022-09-26T12:33:12.104Z,985.87
2022-09-26T12:33:39.675Z,985.82
2022-09-26T12:34:39.618Z,985.85
2022-09-26T12:36:12.847Z,985.88
2022-09-26T12:36:40.465Z,985.90
2022-09-26T12:37:39.598Z,985.91
2022-09-26T12:39:13.982Z,985.86
2022-09-26T12:39:39.554Z,985.92
2022-09-26T12:40:39.677Z,985.96
2022-09-26T12:41:39.554Z,985.99
2022-09-26T12:42:39.567Z,985.93
2022-09-26T12:43:39.579Z,985.83
2022-09-26T12:45:12.834Z,986.05
2022-09-26T12:45:40.451Z,985.96
2022-09-26T12:47:13.947Z,985.88
2022-09-26T12:47:39.562Z,985.92
2022-09-26T12:48:39.544Z,986.04
2022-09-26T12:49:39.514Z,986.02
2022-09-26T12:50:39.492Z,985.96
2022-09-26T12:51:39.480Z,985.94
2022-09-26T12:52:39.533Z,986.00
2022-09-26T12:53:39.488Z,985.97
2022-09-26T12:54:39.516Z,985.93
2022-09-26T12:55:39.500Z,985.89
2022-09-26T12:56:39.523Z,985.94
2022-09-26T12:57:39.468Z,985.93
2022-09-26T12:58:39.552Z,985.95
2022-09-26T12:59:39.450Z,985.94
2022-09-26T13:00:40.353Z,985.86